Xun Long 5 — BYGW — position and weather

sailwx.info

Track history (hours):
 
Tides and Currents Weather Stations Pressure Air Temp Water Temp Dewpoint Dewpoint Depression Visibility Wind Speed Wind Dir Waves Ship Positions

Xun Long 5

Last reported at 2016-Dec-07 23:33 UTC. Time now 2016-Dec-10 03:14 UTC.
Position N 22°27' E 113°52'.

Length 34 m; draft 1.4 m.

Type: High speed craft. MMSI: 413471870.

Date/timePositionNaut miles runAvg speedWind from/ knotsBaromVisibWave heightAir tempDewpointWater temp
2016-Dec-07 23:33N 22°27' E 113°52'3 2.9
2016-Dec-07 22:27N 22°28' E 113°55'0 0.0
2016-Dec-07 21:27N 22°28' E 113°55'0 0.0
2016-Dec-07 20:33N 22°28' E 113°55'0 0.0
2016-Dec-07 19:27N 22°28' E 113°55'0 0.0
2016-Dec-07 18:33N 22°28' E 113°55'0 0.0
2016-Dec-07 17:33N 22°28' E 113°55'0 0.0
2016-Dec-07 16:33N 22°28' E 113°55'0 0.0
2016-Dec-07 15:33N 22°28' E 113°55'0 0.0
2016-Dec-07 14:33N 22°28' E 113°55'0 0.0
2016-Dec-07 13:33N 22°28' E 113°55'0 0.0
2016-Dec-07 11:09N 22°28' E 113°55'0 0.0
2016-Dec-07 10:27N 22°28' E 113°55'0 0.0
2016-Dec-07 09:03N 22°28' E 113°55'0 0.0
2016-Dec-07 08:27N 22°28' E 113°55'0 0.0
2016-Dec-07 07:27N 22°28' E 113°55'0 0.0
2016-Dec-07 06:33N 22°28' E 113°55'0 0.0
2016-Dec-07 05:33N 22°28' E 113°55'0 0.0
2016-Dec-07 04:33N 22°28' E 113°55'0 0.0
2016-Dec-07 03:33N 22°28' E 113°55'0 0.0
2016-Dec-07 02:33N 22°28' E 113°55'0 0.0
2016-Dec-07 01:33N 22°28' E 113°55'0 0.0
2016-Dec-07 00:27N 22°28' E 113°55'0 0.0
2016-Dec-06 23:34N 22°28' E 113°55'0 0.0
2016-Dec-06 22:33N 22°28' E 113°55'0 0.0
2016-Dec-06 21:33N 22°28' E 113°55'0 0.0
2016-Dec-06 20:28N 22°28' E 113°55'0 0.0
2016-Dec-06 18:34N 22°28' E 113°55'0 0.0
2016-Dec-06 17:10N 22°28' E 113°55'0 0.0
2016-Dec-06 16:28N 22°28' E 113°55'0 0.0
2016-Dec-06 15:33N 22°28' E 113°55'0 0.0
2016-Dec-06 14:33N 22°28' E 113°55'0 0.0
2016-Dec-06 13:33N 22°28' E 113°55'0 0.0
2016-Dec-06 12:33N 22°28' E 113°55'0 0.0
2016-Dec-06 11:33N 22°28' E 113°55'0 0.0
2016-Dec-06 10:21N 22°28' E 113°55'0 0.1
2016-Dec-06 09:33N 22°28' E 113°55'5 2.0
2016-Dec-06 07:08N 22°24' E 113°52'5 8.2
2016-Dec-06 06:33N 22°28' E 113°55'1615.9
2016-Dec-06 05:33N 22°19' E 114°08'1313.0
2016-Dec-06 04:33N 22°23' E 113°55'3 1.0
2016-Dec-06 01:33N 22°25' E 113°53'4 3.6
2016-Dec-06 00:33N 22°28' E 113°55'0 0.0
2016-Dec-05 23:33N 22°28' E 113°55'0 0.0
2016-Dec-05 22:33N 22°28' E 113°55'0 0.0
2016-Dec-05 21:33N 22°28' E 113°55'0 0.0
2016-Dec-05 20:33N 22°28' E 113°55'0 0.0
2016-Dec-05 19:33N 22°28' E 113°55'0 0.0
2016-Dec-05 15:33N 22°28' E 113°55'0 0.0
2016-Dec-05 14:33N 22°28' E 113°55'0 0.0
2016-Dec-05 11:33N 22°28' E 113°55'0 0.0
2016-Dec-05 08:33N 22°28' E 113°55'0 0.0
2016-Dec-05 05:33N 22°28' E 113°55'13 2.9
2016-Dec-05 01:16N 22°20' E 114°05'2 2.4
2016-Dec-05 00:33N 22°19' E 114°07'1412.6
2016-Dec-04 23:25N 22°28' E 113°55'0 0.1
2016-Dec-04 22:31N 22°28' E 113°55'0 0.0
2016-Dec-04 21:25N 22°28' E 113°55'0 0.0
2016-Dec-04 20:31N 22°28' E 113°55'0 0.0
2016-Dec-04 19:31N 22°28' E 113°55'0 0.0
2016-Dec-04 18:31N 22°28' E 113°55'0 0.0
2016-Dec-04 17:25N 22°28' E 113°55'0 0.0
2016-Dec-04 16:31N 22°28' E 113°55'0 0.0
2016-Dec-04 15:25N 22°28' E 113°55'0 0.0
2016-Dec-04 14:31N 22°28' E 113°55'5 4.4
2016-Dec-04 13:18N 22°23' E 113°54'5 6.5
2016-Dec-04 12:29N 22°28' E 113°55'0 0.0
2016-Dec-04 09:25N 22°28' E 113°55'0 0.0
2016-Dec-04 06:31N 22°28' E 113°55'6 2.8
2016-Dec-04 04:24N 22°22' E 113°55'6 1.0
2016-Dec-03 22:31N 22°28' E 113°55'0 0.0
2016-Dec-03 21:31N 22°28' E 113°55'0 0.0
2016-Dec-03 20:31N 22°28' E 113°55'0 0.0
2016-Dec-03 19:25N 22°28' E 113°55'0 0.0
2016-Dec-03 18:25N 22°28' E 113°55'0 0.0
2016-Dec-03 17:31N 22°28' E 113°55'0 0.0
2016-Dec-03 16:25N 22°28' E 113°55'0 0.0
2016-Dec-03 15:31N 22°28' E 113°55'0 0.0
2016-Dec-03 14:25N 22°28' E 113°55'5 4.0
2016-Dec-03 13:13N 22°24' E 113°54'5 5.8
2016-Dec-03 12:24N 22°28' E 113°55'0 0.0
2016-Dec-03 09:33N 22°28' E 113°55'0 0.0
2016-Dec-03 06:33N 22°28' E 113°55'1717.2
2016-Dec-03 05:32N 22°17' E 114°09'1714.9
2016-Dec-03 04:22N 22°28' E 113°55'0 0.0
2016-Dec-03 01:26N 22°28' E 113°55'0 0.0
2016-Dec-03 00:32N 22°28' E 113°55'0 0.0
2016-Dec-02 23:32N 22°28' E 113°55'0 0.0
2016-Dec-02 22:32N 22°28' E 113°55'0 0.0
2016-Dec-02 21:26N 22°28' E 113°55'0 0.0
2016-Dec-02 20:14N 22°28' E 113°55'0 0.0
2016-Dec-02 19:20N 22°28' E 113°55'0 0.0
2016-Dec-02 18:32N 22°28' E 113°55'0 0.0
2016-Dec-02 17:32N 22°28' E 113°55'0 0.0
2016-Dec-02 16:32N 22°28' E 113°55'0 0.0
2016-Dec-02 15:20N 22°28' E 113°55'0 0.0
2016-Dec-02 14:32N 22°28' E 113°55'6 5.0
2016-Dec-02 13:21N 22°22' E 113°55'6 7.1
2016-Dec-02 12:31N 22°28' E 113°55'0 0.0
2016-Dec-02 11:34N 22°28' E 113°55'4 1.9
2016-Dec-02 09:25N 22°25' E 113°53'2 0.5
2016-Dec-02 06:05N 22°23' E 113°52'610.3
2016-Dec-02 05:31N 22°28' E 113°55'0 0.0
2016-Dec-02 02:27N 22°28' E 113°55'0 0.0
2016-Dec-02 01:27N 22°28' E 113°55'0 0.0
2016-Dec-01 09:28N 22°28' E 113°55'2 2.6
2016-Dec-01 08:33N 22°26' E 113°54'2 0.4
2016-Dec-01 03:11N 22°28' E 113°55'0 0.5
2016-Dec-01 02:21N 22°28' E 113°55'1714.3
2016-Dec-01 01:09N 22°18' E 114°09'1710.5
2016-Nov-30 23:32N 22°28' E 113°55'0 0.1
2016-Nov-30 22:31N 22°28' E 113°55'0 0.0
2016-Nov-30 21:31N 22°28' E 113°55'0 0.0
2016-Nov-30 20:25N 22°28' E 113°55'0 0.0
2016-Nov-30 19:31N 22°28' E 113°55'0 0.0
2016-Nov-30 18:31N 22°28' E 113°55'0 0.0
2016-Nov-30 17:31N 22°28' E 113°55'0 0.0
2016-Nov-30 16:10N 22°28' E 113°55'0 0.0
2016-Nov-30 15:26N 22°28' E 113°55'0 0.0
2016-Nov-30 14:31N 22°28' E 113°55'0 0.0
2016-Nov-30 13:31N 22°28' E 113°55'0 0.0
2016-Nov-30 09:19N 22°28' E 113°55'0 0.0
2016-Nov-30 08:33N 22°28' E 113°55'0 0.0
2016-Nov-30 07:28N 22°28' E 113°55'0 0.0
2016-Nov-30 05:25N 22°28' E 113°55'0 0.0
2016-Nov-30 03:27N 22°28' E 113°55'0 0.0
2016-Nov-30 02:21N 22°28' E 113°55'0 0.0
2016-Nov-30 01:33N 22°28' E 113°55'0 0.0
2016-Nov-30 00:32N 22°28' E 113°55'0 0.0
2016-Nov-29 23:32N 22°28' E 113°55'0 0.0
2016-Nov-29 22:33N 22°28' E 113°55'0 0.0
2016-Nov-29 21:32N 22°28' E 113°55'0 0.0
2016-Nov-29 20:32N 22°28' E 113°55'0 0.0
2016-Nov-29 19:26N 22°28' E 113°55'0 0.0
2016-Nov-29 18:33N 22°28' E 113°55'0 0.0
2016-Nov-29 17:32N 22°28' E 113°55'0 0.0
2016-Nov-29 16:15N 22°28' E 113°55'0 0.0
2016-Nov-29 15:29N 22°28' E 113°55'0 0.0
2016-Nov-29 14:32N 22°28' E 113°55'0 0.0
2016-Nov-29 13:33N 22°28' E 113°55'0 0.0
2016-Nov-29 12:26N 22°28' E 113°55'0 0.0
2016-Nov-29 11:32N 22°28' E 113°55'0 0.0
2016-Nov-29 09:20N 22°28' E 113°55'5 1.7
2016-Nov-29 06:12N 22°24' E 113°52'5 1.3
2016-Nov-29 02:33N 22°28' E 113°55'12 9.6
2016-Nov-29 01:16N 22°20' E 114°05'2 2.0
2016-Nov-29 00:28N 22°21' E 114°03'1111.5
2016-Nov-28 23:30N 22°28' E 113°55'0 0.0
2016-Nov-28 22:18N 22°28' E 113°55'0 0.0
2016-Nov-28 21:24N 22°28' E 113°55'0 0.0
2016-Nov-28 20:30N 22°28' E 113°55'0 0.0
2016-Nov-28 19:30N 22°28' E 113°55'0 0.0
2016-Nov-28 18:30N 22°28' E 113°55'0 0.0
2016-Nov-28 17:30N 22°28' E 113°55'0 0.0
2016-Nov-28 16:30N 22°28' E 113°55'0 0.0
2016-Nov-28 15:30N 22°28' E 113°55'0 0.0
2016-Nov-28 14:30N 22°28' E 113°55'0 0.0
2016-Nov-28 11:30N 22°28' E 113°55'0 0.0
2016-Nov-28 10:30N 22°28' E 113°55'0 0.0
2016-Nov-28 09:30N 22°28' E 113°55'0 0.0
2016-Nov-28 06:33N 22°28' E 113°55'1414.2
2016-Nov-28 05:33N 22°19' E 114°06'1111.1
2016-Nov-28 04:31N 22°23' E 113°55'3 1.0
2016-Nov-28 01:28N 22°25' E 113°52'4 4.5
2016-Nov-28 00:31N 22°28' E 113°55'  
Track history (hours):
 
Tides and Currents Weather Stations Pressure Air Temp Water Temp Dewpoint Dewpoint Depression Visibility Wind Speed Wind Dir Waves Ship Positions

Xun Long 5

Last reported at 2016-Dec-07 23:33 UTC. Time now 2016-Dec-10 03:14 UTC.
Position N 22°27' E 113°52'.

Length 34 m; draft 1.4 m.

Type: High speed craft. MMSI: 413471870.

Date/timePositionNaut miles runAvg speedWind from/ knotsBaromVisibWave heightAir tempDewpointWater temp
2016-Dec-07 23:33N 22°27' E 113°52'3 2.9
2016-Dec-07 22:27N 22°28' E 113°55'0 0.0
2016-Dec-07 21:27N 22°28' E 113°55'0 0.0
2016-Dec-07 20:33N 22°28' E 113°55'0 0.0
2016-Dec-07 19:27N 22°28' E 113°55'0 0.0
2016-Dec-07 18:33N 22°28' E 113°55'0 0.0
2016-Dec-07 17:33N 22°28' E 113°55'0 0.0
2016-Dec-07 16:33N 22°28' E 113°55'0 0.0
2016-Dec-07 15:33N 22°28' E 113°55'0 0.0
2016-Dec-07 14:33N 22°28' E 113°55'0 0.0
2016-Dec-07 13:33N 22°28' E 113°55'0 0.0
2016-Dec-07 11:09N 22°28' E 113°55'0 0.0
2016-Dec-07 10:27N 22°28' E 113°55'0 0.0
2016-Dec-07 09:03N 22°28' E 113°55'0 0.0
2016-Dec-07 08:27N 22°28' E 113°55'0 0.0
2016-Dec-07 07:27N 22°28' E 113°55'0 0.0
2016-Dec-07 06:33N 22°28' E 113°55'0 0.0
2016-Dec-07 05:33N 22°28' E 113°55'0 0.0
2016-Dec-07 04:33N 22°28' E 113°55'0 0.0
2016-Dec-07 03:33N 22°28' E 113°55'0 0.0
2016-Dec-07 02:33N 22°28' E 113°55'0 0.0
2016-Dec-07 01:33N 22°28' E 113°55'0 0.0
2016-Dec-07 00:27N 22°28' E 113°55'0 0.0
2016-Dec-06 23:34N 22°28' E 113°55'0 0.0
2016-Dec-06 22:33N 22°28' E 113°55'0 0.0
2016-Dec-06 21:33N 22°28' E 113°55'0 0.0
2016-Dec-06 20:28N 22°28' E 113°55'0 0.0
2016-Dec-06 18:34N 22°28' E 113°55'0 0.0
2016-Dec-06 17:10N 22°28' E 113°55'0 0.0
2016-Dec-06 16:28N 22°28' E 113°55'0 0.0
2016-Dec-06 15:33N 22°28' E 113°55'0 0.0
2016-Dec-06 14:33N 22°28' E 113°55'0 0.0
2016-Dec-06 13:33N 22°28' E 113°55'0 0.0
2016-Dec-06 12:33N 22°28' E 113°55'0 0.0
2016-Dec-06 11:33N 22°28' E 113°55'0 0.0
2016-Dec-06 10:21N 22°28' E 113°55'0 0.1
2016-Dec-06 09:33N 22°28' E 113°55'5 2.0
2016-Dec-06 07:08N 22°24' E 113°52'5 8.2
2016-Dec-06 06:33N 22°28' E 113°55'1615.9
2016-Dec-06 05:33N 22°19' E 114°08'1313.0
2016-Dec-06 04:33N 22°23' E 113°55'3 1.0
2016-Dec-06 01:33N 22°25' E 113°53'4 3.6
2016-Dec-06 00:33N 22°28' E 113°55'0 0.0
2016-Dec-05 23:33N 22°28' E 113°55'0 0.0
2016-Dec-05 22:33N 22°28' E 113°55'0 0.0
2016-Dec-05 21:33N 22°28' E 113°55'0 0.0
2016-Dec-05 20:33N 22°28' E 113°55'0 0.0
2016-Dec-05 19:33N 22°28' E 113°55'0 0.0
2016-Dec-05 15:33N 22°28' E 113°55'0 0.0
2016-Dec-05 14:33N 22°28' E 113°55'0 0.0
2016-Dec-05 11:33N 22°28' E 113°55'0 0.0
2016-Dec-05 08:33N 22°28' E 113°55'0 0.0
2016-Dec-05 05:33N 22°28' E 113°55'13 2.9
2016-Dec-05 01:16N 22°20' E 114°05'2 2.4
2016-Dec-05 00:33N 22°19' E 114°07'1412.6
2016-Dec-04 23:25N 22°28' E 113°55'0 0.1
2016-Dec-04 22:31N 22°28' E 113°55'0 0.0
2016-Dec-04 21:25N 22°28' E 113°55'0 0.0
2016-Dec-04 20:31N 22°28' E 113°55'0 0.0
2016-Dec-04 19:31N 22°28' E 113°55'0 0.0
2016-Dec-04 18:31N 22°28' E 113°55'0 0.0
2016-Dec-04 17:25N 22°28' E 113°55'0 0.0
2016-Dec-04 16:31N 22°28' E 113°55'0 0.0
2016-Dec-04 15:25N 22°28' E 113°55'0 0.0
2016-Dec-04 14:31N 22°28' E 113°55'5 4.4
2016-Dec-04 13:18N 22°23' E 113°54'5 6.5
2016-Dec-04 12:29N 22°28' E 113°55'0 0.0
2016-Dec-04 09:25N 22°28' E 113°55'0 0.0
2016-Dec-04 06:31N 22°28' E 113°55'6 2.8
2016-Dec-04 04:24N 22°22' E 113°55'6 1.0
2016-Dec-03 22:31N 22°28' E 113°55'0 0.0
2016-Dec-03 21:31N 22°28' E 113°55'0 0.0
2016-Dec-03 20:31N 22°28' E 113°55'0 0.0
2016-Dec-03 19:25N 22°28' E 113°55'0 0.0
2016-Dec-03 18:25N 22°28' E 113°55'0 0.0
2016-Dec-03 17:31N 22°28' E 113°55'0 0.0
2016-Dec-03 16:25N 22°28' E 113°55'0 0.0
2016-Dec-03 15:31N 22°28' E 113°55'0 0.0
2016-Dec-03 14:25N 22°28' E 113°55'5 4.0
2016-Dec-03 13:13N 22°24' E 113°54'5 5.8
2016-Dec-03 12:24N 22°28' E 113°55'0 0.0
2016-Dec-03 09:33N 22°28' E 113°55'0 0.0
2016-Dec-03 06:33N 22°28' E 113°55'1717.2
2016-Dec-03 05:32N 22°17' E 114°09'1714.9
2016-Dec-03 04:22N 22°28' E 113°55'0 0.0
2016-Dec-03 01:26N 22°28' E 113°55'0 0.0
2016-Dec-03 00:32N 22°28' E 113°55'0 0.0
2016-Dec-02 23:32N 22°28' E 113°55'0 0.0
2016-Dec-02 22:32N 22°28' E 113°55'0 0.0
2016-Dec-02 21:26N 22°28' E 113°55'0 0.0
2016-Dec-02 20:14N 22°28' E 113°55'0 0.0
2016-Dec-02 19:20N 22°28' E 113°55'0 0.0
2016-Dec-02 18:32N 22°28' E 113°55'0 0.0
2016-Dec-02 17:32N 22°28' E 113°55'0 0.0
2016-Dec-02 16:32N 22°28' E 113°55'0 0.0
2016-Dec-02 15:20N 22°28' E 113°55'0 0.0
2016-Dec-02 14:32N 22°28' E 113°55'6 5.0
2016-Dec-02 13:21N 22°22' E 113°55'6 7.1
2016-Dec-02 12:31N 22°28' E 113°55'0 0.0
2016-Dec-02 11:34N 22°28' E 113°55'4 1.9
2016-Dec-02 09:25N 22°25' E 113°53'2 0.5
2016-Dec-02 06:05N 22°23' E 113°52'610.3
2016-Dec-02 05:31N 22°28' E 113°55'0 0.0
2016-Dec-02 02:27N 22°28' E 113°55'0 0.0
2016-Dec-02 01:27N 22°28' E 113°55'0 0.0
2016-Dec-01 09:28N 22°28' E 113°55'2 2.6
2016-Dec-01 08:33N 22°26' E 113°54'2 0.4
2016-Dec-01 03:11N 22°28' E 113°55'0 0.5
2016-Dec-01 02:21N 22°28' E 113°55'1714.3
2016-Dec-01 01:09N 22°18' E 114°09'1710.5
2016-Nov-30 23:32N 22°28' E 113°55'0 0.1
2016-Nov-30 22:31N 22°28' E 113°55'0 0.0
2016-Nov-30 21:31N 22°28' E 113°55'0 0.0
2016-Nov-30 20:25N 22°28' E 113°55'0 0.0
2016-Nov-30 19:31N 22°28' E 113°55'0 0.0
2016-Nov-30 18:31N 22°28' E 113°55'0 0.0
2016-Nov-30 17:31N 22°28' E 113°55'0 0.0
2016-Nov-30 16:10N 22°28' E 113°55'0 0.0
2016-Nov-30 15:26N 22°28' E 113°55'0 0.0
2016-Nov-30 14:31N 22°28' E 113°55'0 0.0
2016-Nov-30 13:31N 22°28' E 113°55'0 0.0
2016-Nov-30 09:19N 22°28' E 113°55'0 0.0
2016-Nov-30 08:33N 22°28' E 113°55'0 0.0
2016-Nov-30 07:28N 22°28' E 113°55'0 0.0
2016-Nov-30 05:25N 22°28' E 113°55'0 0.0
2016-Nov-30 03:27N 22°28' E 113°55'0 0.0
2016-Nov-30 02:21N 22°28' E 113°55'0 0.0
2016-Nov-30 01:33N 22°28' E 113°55'0 0.0
2016-Nov-30 00:32N 22°28' E 113°55'0 0.0
2016-Nov-29 23:32N 22°28' E 113°55'0 0.0
2016-Nov-29 22:33N 22°28' E 113°55'0 0.0
2016-Nov-29 21:32N 22°28' E 113°55'0 0.0
2016-Nov-29 20:32N 22°28' E 113°55'0 0.0
2016-Nov-29 19:26N 22°28' E 113°55'0 0.0
2016-Nov-29 18:33N 22°28' E 113°55'0 0.0
2016-Nov-29 17:32N 22°28' E 113°55'0 0.0
2016-Nov-29 16:15N 22°28' E 113°55'0 0.0
2016-Nov-29 15:29N 22°28' E 113°55'0 0.0
2016-Nov-29 14:32N 22°28' E 113°55'0 0.0
2016-Nov-29 13:33N 22°28' E 113°55'0 0.0
2016-Nov-29 12:26N 22°28' E 113°55'0 0.0
2016-Nov-29 11:32N 22°28' E 113°55'0 0.0
2016-Nov-29 09:20N 22°28' E 113°55'5 1.7
2016-Nov-29 06:12N 22°24' E 113°52'5 1.3
2016-Nov-29 02:33N 22°28' E 113°55'12 9.6
2016-Nov-29 01:16N 22°20' E 114°05'2 2.0
2016-Nov-29 00:28N 22°21' E 114°03'1111.5
2016-Nov-28 23:30N 22°28' E 113°55'0 0.0
2016-Nov-28 22:18N 22°28' E 113°55'0 0.0
2016-Nov-28 21:24N 22°28' E 113°55'0 0.0
2016-Nov-28 20:30N 22°28' E 113°55'0 0.0
2016-Nov-28 19:30N 22°28' E 113°55'0 0.0
2016-Nov-28 18:30N 22°28' E 113°55'0 0.0
2016-Nov-28 17:30N 22°28' E 113°55'0 0.0
2016-Nov-28 16:30N 22°28' E 113°55'0 0.0
2016-Nov-28 15:30N 22°28' E 113°55'0 0.0
2016-Nov-28 14:30N 22°28' E 113°55'0 0.0
2016-Nov-28 11:30N 22°28' E 113°55'0 0.0
2016-Nov-28 10:30N 22°28' E 113°55'0 0.0
2016-Nov-28 09:30N 22°28' E 113°55'0 0.0
2016-Nov-28 06:33N 22°28' E 113°55'1414.2
2016-Nov-28 05:33N 22°19' E 114°06'1111.1
2016-Nov-28 04:31N 22°23' E 113°55'3 1.0
2016-Nov-28 01:28N 22°25' E 113°52'4 4.5
2016-Nov-28 00:31N 22°28' E 113°55'  

Dump ship's entire track history